sensor_id;sensor_type;location;lat;lon;timestamp;pressure;altitude;pressure_sealevel;temperature;humidity
56182;BME280;51963;46.052;14.544;2023-03-18T00:01:37;98313.84;;;1.81;87.18
56182;BME280;51963;46.052;14.544;2023-03-18T00:04:03;98314.22;;;1.76;87.60
56182;BME280;51963;46.052;14.544;2023-03-18T00:06:29;98312.03;;;1.72;87.36
56182;BME280;51963;46.052;14.544;2023-03-18T00:08:55;98306.81;;;1.72;88.94
56182;BME280;51963;46.052;14.544;2023-03-18T00:11:23;98301.88;;;1.69;88.84
56182;BME280;51963;46.052;14.544;2023-03-18T00:13:53;98316.81;;;1.67;89.32
56182;BME280;51963;46.052;14.544;2023-03-18T00:16:21;98307.88;;;1.59;90.02
56182;BME280;51963;46.052;14.544;2023-03-18T00:18:48;98300.44;;;1.55;90.81
56182;BME280;51963;46.052;14.544;2023-03-18T00:21:15;98304.84;;;1.54;91.12
56182;BME280;51963;46.052;14.544;2023-03-18T00:23:41;98318.94;;;1.52;92.26
56182;BME280;51963;46.052;14.544;2023-03-18T00:26:08;98303.47;;;1.50;93.16
56182;BME280;51963;46.052;14.544;2023-03-18T00:28:35;98285.31;;;1.39;92.98
56182;BME280;51963;46.052;14.544;2023-03-18T00:31:05;98294.78;;;1.40;92.87
56182;BME280;51963;46.052;14.544;2023-03-18T00:33:34;98303.56;;;1.39;93.30
56182;BME280;51963;46.052;14.544;2023-03-18T00:36:00;98292.38;;;1.27;94.78
56182;BME280;51963;46.052;14.544;2023-03-18T00:38:26;98281.50;;;1.12;95.08
56182;BME280;51963;46.052;14.544;2023-03-18T00:40:53;98302.81;;;1.27;95.06
56182;BME280;51963;46.052;14.544;2023-03-18T00:43:29;98296.59;;;1.18;95.46
56182;BME280;51963;46.052;14.544;2023-03-18T00:45:59;98301.28;;;1.24;96.58
56182;BME280;51963;46.052;14.544;2023-03-18T00:48:25;98298.50;;;1.16;97.18
56182;BME280;51963;46.052;14.544;2023-03-18T00:50:52;98295.72;;;1.08;97.76
56182;BME280;51963;46.052;14.544;2023-03-18T00:53:19;98301.06;;;1.06;98.01
56182;BME280;51963;46.052;14.544;2023-03-18T00:55:46;98285.91;;;0.90;98.74
56182;BME280;51963;46.052;14.544;2023-03-18T00:58:12;98294.59;;;1.00;99.14
56182;BME280;51963;46.052;14.544;2023-03-18T01:00:39;98296.75;;;0.95;99.51
56182;BME280;51963;46.052;14.544;2023-03-18T01:03:06;98289.91;;;0.94;99.84
56182;BME280;51963;46.052;14.544;2023-03-18T01:05:33;98257.28;;;0.69;100.00
56182;BME280;51963;46.052;14.544;2023-03-18T01:08:02;98298.66;;;0.93;100.00
56182;BME280;51963;46.052;14.544;2023-03-18T01:10:31;98298.22;;;0.88;100.00
56182;BME280;51963;46.052;14.544;2023-03-18T01:12:57;98290.53;;;0.86;100.00
56182;BME280;51963;46.052;14.544;2023-03-18T01:15:23;98292.69;;;0.81;100.00
56182;BME280;51963;46.052;14.544;2023-03-18T01:17:50;98290.47;;;0.77;100.00
56182;BME280;51963;46.052;14.544;2023-03-18T01:20:18;98292.94;;;0.78;100.00
56182;BME280;51963;46.052;14.544;2023-03-18T01:22:48;98283.38;;;0.79;100.00
56182;BME280;51963;46.052;14.544;2023-03-18T01:25:16;98277.03;;;0.71;100.00
56182;BME280;51963;46.052;14.544;2023-03-18T01:27:46;98279.47;;;0.73;100.00
56182;BME280;51963;46.052;14.544;2023-03-18T01:30:12;98276.44;;;0.68;100.00
56182;BME280;51963;46.052;14.544;2023-03-18T01:32:39;98271.75;;;0.62;100.00
56182;BME280;51963;46.052;14.544;2023-03-18T01:35:06;98266.69;;;0.60;100.00
56182;BME280;51963;46.052;14.544;2023-03-18T01:37:32;98270.94;;;0.61;100.00
56182;BME280;51963;46.052;14.544;2023-03-18T01:40:09;98262.94;;;0.53;100.00
56182;BME280;51963;46.052;14.544;2023-03-18T01:42:35;98268.44;;;0.60;100.00
56182;BME280;51963;46.052;14.544;2023-03-18T01:45:12;98275.44;;;0.59;100.00
56182;BME280;51963;46.052;14.544;2023-03-18T01:47:41;98261.53;;;0.49;100.00
56182;BME280;51963;46.052;14.544;2023-03-18T01:50:20;98270.16;;;0.70;100.00
56182;BME280;51963;46.052;14.544;2023-03-18T01:52:51;98261.22;;;0.63;100.00
56182;BME280;51963;46.052;14.544;2023-03-18T01:55:20;98267.88;;;0.56;100.00
56182;BME280;51963;46.052;14.544;2023-03-18T01:57:47;98265.34;;;0.45;100.00
56182;BME280;51963;46.052;14.544;2023-03-18T02:00:14;98269.84;;;0.42;100.00
56182;BME280;51963;46.052;14.544;2023-03-18T02:02:45;98266.53;;;0.40;100.00
56182;BME280;51963;46.052;14.544;2023-03-18T02:05:16;98262.78;;;0.33;100.00
56182;BME280;51963;46.052;14.544;2023-03-18T02:07:44;98262.53;;;0.36;100.00
56182;BME280;51963;46.052;14.544;2023-03-18T02:10:17;98257.59;;;0.33;100.00
56182;BME280;51963;46.052;14.544;2023-03-18T02:12:49;98254.28;;;0.31;100.00
56182;BME280;51963;46.052;14.544;2023-03-18T02:15:24;98252.53;;;0.20;100.00
56182;BME280;51963;46.052;14.544;2023-03-18T02:17:58;98256.94;;;0.20;100.00
56182;BME280;51963;46.052;14.544;2023-03-18T02:20:37;98253.66;;;0.06;100.00
56182;BME280;51963;46.052;14.544;2023-03-18T02:23:10;98255.78;;;0.12;100.00
56182;BME280;51963;46.052;14.544;2023-03-18T02:26:04;98249.38;;;0.17;100.00
56182;BME280;51963;46.052;14.544;2023-03-18T02:28:35;98255.06;;;0.10;100.00
56182;BME280;51963;46.052;14.544;2023-03-18T02:31:03;98258.63;;;0.09;100.00
56182;BME280;51963;46.052;14.544;2023-03-18T02:33:33;98246.84;;;0.26;100.00
56182;BME280;51963;46.052;14.544;2023-03-18T02:36:11;98235.81;;;0.34;100.00
56182;BME280;51963;46.052;14.544;2023-03-18T02:38:45;98233.53;;;0.20;100.00
56182;BME280;51963;46.052;14.544;2023-03-18T02:41:24;98236.63;;;0.13;100.00
56182;BME280;51963;46.052;14.544;2023-03-18T02:43:51;98241.38;;;0.08;100.00
56182;BME280;51963;46.052;14.544;2023-03-18T02:49:17;98235.22;;;0.09;100.00
56182;BME280;51963;46.052;14.544;2023-03-18T02:51:44;98235.22;;;0.09;100.00
56182;BME280;51963;46.052;14.544;2023-03-18T02:54:13;98240.03;;;0.14;100.00
56182;BME280;51963;46.052;14.544;2023-03-18T02:56:41;98247.28;;;0.10;100.00
56182;BME280;51963;46.052;14.544;2023-03-18T02:59:09;98236.31;;;-0.05;100.00
56182;BME280;51963;46.052;14.544;2023-03-18T03:01:37;98231.72;;;-0.12;100.00
56182;BME280;51963;46.052;14.544;2023-03-18T03:04:04;98241.06;;;-0.10;100.00
56182;BME280;51963;46.052;14.544;2023-03-18T03:06:31;98236.47;;;-0.18;100.00
56182;BME280;51963;46.052;14.544;2023-03-18T03:08:57;98240.50;;;-0.25;100.00
56182;BME280;51963;46.052;14.544;2023-03-18T03:11:26;98241.69;;;-0.29;100.00
56182;BME280;51963;46.052;14.544;2023-03-18T03:13:55;98228.47;;;-0.37;100.00
56182;BME280;51963;46.052;14.544;2023-03-18T03:16:21;98241.69;;;-0.29;100.00
56182;BME280;51963;46.052;14.544;2023-03-18T03:18:47;98240.72;;;-0.17;100.00
56182;BME280;51963;46.052;14.544;2023-03-18T03:21:13;98242.41;;;-0.27;100.00
56182;BME280;51963;46.052;14.544;2023-03-18T03:23:42;98248.22;;;-0.35;100.00
56182;BME280;51963;46.052;14.544;2023-03-18T03:26:08;98237.94;;;-0.36;100.00
56182;BME280;51963;46.052;14.544;2023-03-18T03:28:33;98237.47;;;-0.41;100.00
56182;BME280;51963;46.052;14.544;2023-03-18T03:31:00;98244.56;;;-0.43;100.00
56182;BME280;51963;46.052;14.544;2023-03-18T03:33:26;98242.91;;;-0.45;100.00
56182;BME280;51963;46.052;14.544;2023-03-18T03:35:52;98237.38;;;-0.51;100.00
56182;BME280;51963;46.052;14.544;2023-03-18T03:38:18;98244.06;;;-0.37;100.00
56182;BME280;51963;46.052;14.544;2023-03-18T03:40:45;98248.69;;;-0.41;100.00
56182;BME280;51963;46.052;14.544;2023-03-18T03:43:14;98241.25;;;-0.46;100.00
56182;BME280;51963;46.052;14.544;2023-03-18T03:45:41;98253.53;;;-0.48;100.00
56182;BME280;51963;46.052;14.544;2023-03-18T03:48:07;98233.72;;;-0.60;100.00
56182;BME280;51963;46.052;14.544;2023-03-18T03:50:34;98261.78;;;-0.42;100.00
56182;BME280;51963;46.052;14.544;2023-03-18T03:53:00;98243.13;;;-0.48;100.00
56182;BME280;51963;46.052;14.544;2023-03-18T03:55:27;98244.31;;;-0.52;100.00
56182;BME280;51963;46.052;14.544;2023-03-18T03:57:54;98251.06;;;-0.49;100.00
56182;BME280;51963;46.052;14.544;2023-03-18T04:00:21;98258.63;;;-0.46;100.00
56182;BME280;51963;46.052;14.544;2023-03-18T04:02:50;98257.91;;;-0.48;100.00
56182;BME280;51963;46.052;14.544;2023-03-18T04:05:20;98254.59;;;-0.50;100.00
56182;BME280;51963;46.052;14.544;2023-03-18T04:07:47;98237.72;;;-0.67;100.00
56182;BME280;51963;46.052;14.544;2023-03-18T04:10:15;98251.41;;;-0.65;100.00
56182;BME280;51963;46.052;14.544;2023-03-18T04:12:42;98239.63;;;-0.69;100.00
56182;BME280;51963;46.052;14.544;2023-03-18T04:15:10;98265.47;;;-0.56;100.00
56182;BME280;51963;46.052;14.544;2023-03-18T04:17:36;98261.56;;;-0.62;100.00
56182;BME280;51963;46.052;14.544;2023-03-18T04:20:03;98258.28;;;-0.64;100.00
56182;BME280;51963;46.052;14.544;2023-03-18T04:22:31;98260.88;;;-0.64;100.00
56182;BME280;51963;46.052;14.544;2023-03-18T04:24:59;98237.97;;;-0.82;100.00
56182;BME280;51963;46.052;14.544;2023-03-18T04:27:25;98264.53;;;-0.67;100.00
56182;BME280;51963;46.052;14.544;2023-03-18T04:29:53;98262.75;;;-0.66;100.00
56182;BME280;51963;46.052;14.544;2023-03-18T04:32:20;98245.53;;;-0.79;100.00
56182;BME280;51963;46.052;14.544;2023-03-18T04:34:46;98256.28;;;-0.72;100.00
56182;BME280;51963;46.052;14.544;2023-03-18T04:37:12;98256.16;;;-0.70;100.00
56182;BME280;51963;46.052;14.544;2023-03-18T04:39:43;98254.50;;;-0.71;100.00
56182;BME280;51963;46.052;14.544;2023-03-18T04:42:10;98260.63;;;-0.72;100.00
56182;BME280;51963;46.052;14.544;2023-03-18T04:44:36;98242.22;;;-0.81;100.00
56182;BME280;51963;46.052;14.544;2023-03-18T04:47:01;98261.72;;;-0.64;100.00
56182;BME280;51963;46.052;14.544;2023-03-18T04:49:28;98258.75;;;-0.59;100.00
56182;BME280;51963;46.052;14.544;2023-03-18T04:51:54;98259.59;;;-0.70;100.00
56182;BME280;51963;46.052;14.544;2023-03-18T04:54:26;98255.69;;;-0.76;100.00
56182;BME280;51963;46.052;14.544;2023-03-18T04:56:55;98262.53;;;-0.75;100.00
56182;BME280;51963;46.052;14.544;2023-03-18T04:59:21;98269.13;;;-0.70;100.00
56182;BME280;51963;46.052;14.544;2023-03-18T05:01:48;98273.28;;;-0.56;100.00
56182;BME280;51963;46.052;14.544;2023-03-18T05:04:15;98265.34;;;-0.43;100.00
56182;BME280;51963;46.052;14.544;2023-03-18T05:06:48;98271.72;;;-0.59;100.00
56182;BME280;51963;46.052;14.544;2023-03-18T05:09:14;98258.72;;;-0.48;100.00
56182;BME280;51963;46.052;14.544;2023-03-18T05:11:41;98240.69;;;-0.72;100.00
56182;BME280;51963;46.052;14.544;2023-03-18T05:14:27;98274.69;;;-0.64;100.00
56182;BME280;51963;46.052;14.544;2023-03-18T05:16:54;98272.19;;;-0.42;100.00
56182;BME280;51963;46.052;14.544;2023-03-18T05:19:20;98249.78;;;-0.66;100.00
56182;BME280;51963;46.052;14.544;2023-03-18T05:21:55;98277.88;;;-0.60;100.00
56182;BME280;51963;46.052;14.544;2023-03-18T05:24:21;98261.47;;;-0.72;100.00
56182;BME280;51963;46.052;14.544;2023-03-18T05:26:47;98268.63;;;-0.41;100.00
56182;BME280;51963;46.052;14.544;2023-03-18T05:29:14;98275.97;;;-0.47;100.00
56182;BME280;51963;46.052;14.544;2023-03-18T05:31:51;98279.16;;;-0.54;100.00
56182;BME280;51963;46.052;14.544;2023-03-18T05:34:17;98260.41;;;-0.69;100.00
56182;BME280;51963;46.052;14.544;2023-03-18T05:36:44;98263.94;;;-0.59;100.00
56182;BME280;51963;46.052;14.544;2023-03-18T05:39:10;98282.09;;;-0.59;100.00
56182;BME280;51963;46.052;14.544;2023-03-18T05:41:36;98278.47;;;-0.68;100.00
56182;BME280;51963;46.052;14.544;2023-03-18T05:44:04;98281.31;;;-0.60;100.00
56182;BME280;51963;46.052;14.544;2023-03-18T05:46:34;98289.66;;;-0.56;100.00
56182;BME280;51963;46.052;14.544;2023-03-18T05:49:20;98297.69;;;-0.59;100.00
56182;BME280;51963;46.052;14.544;2023-03-18T05:52:11;98292.50;;;-0.59;100.00
56182;BME280;51963;46.052;14.544;2023-03-18T05:54:42;98294.28;;;-0.60;100.00
56182;BME280;51963;46.052;14.544;2023-03-18T05:57:09;98295.31;;;-0.51;100.00
56182;BME280;51963;46.052;14.544;2023-03-18T05:59:35;98258.97;;;-0.74;100.00
56182;BME280;51963;46.052;14.544;2023-03-18T06:02:02;98277.16;;;-0.51;100.00
56182;BME280;51963;46.052;14.544;2023-03-18T06:04:28;98292.72;;;-0.39;100.00
56182;BME280;51963;46.052;14.544;2023-03-18T06:06:54;98301.94;;;-0.35;100.00
56182;BME280;51963;46.052;14.544;2023-03-18T06:09:20;98300.63;;;-0.30;100.00
56182;BME280;51963;46.052;14.544;2023-03-18T06:11:46;98298.13;;;-0.20;100.00
56182;BME280;51963;46.052;14.544;2023-03-18T06:14:12;98304.38;;;-0.11;100.00
56182;BME280;51963;46.052;14.544;2023-03-18T06:16:39;98282.53;;;-0.20;100.00
56182;BME280;51963;46.052;14.544;2023-03-18T06:19:09;98298.34;;;0.00;100.00
56182;BME280;51963;46.052;14.544;2023-03-18T06:21:38;98298.81;;;0.05;100.00
56182;BME280;51963;46.052;14.544;2023-03-18T06:24:05;98303.38;;;0.13;100.00
56182;BME280;51963;46.052;14.544;2023-03-18T06:26:32;98261.22;;;-0.02;100.00
56182;BME280;51963;46.052;14.544;2023-03-18T06:29:00;98303.00;;;0.29;100.00
56182;BME280;51963;46.052;14.544;2023-03-18T06:31:26;98287.13;;;0.32;100.00
56182;BME280;51963;46.052;14.544;2023-03-18T06:33:52;98306.25;;;0.42;100.00
56182;BME280;51963;46.052;14.544;2023-03-18T06:36:19;98307.25;;;0.51;100.00
56182;BME280;51963;46.052;14.544;2023-03-18T06:38:49;98312.56;;;0.61;100.00
56182;BME280;51963;46.052;14.544;2023-03-18T06:41:16;98319.34;;;0.73;100.00
56182;BME280;51963;46.052;14.544;2023-03-18T06:43:55;98317.91;;;0.81;100.00
56182;BME280;51963;46.052;14.544;2023-03-18T06:46:22;98311.44;;;0.96;100.00
56182;BME280;51963;46.052;14.544;2023-03-18T06:48:48;98322.13;;;1.03;100.00
56182;BME280;51963;46.052;14.544;2023-03-18T06:51:20;98289.50;;;0.99;100.00
56182;BME280;51963;46.052;14.544;2023-03-18T06:53:45;98312.41;;;1.26;100.00
56182;BME280;51963;46.052;14.544;2023-03-18T06:56:12;98317.78;;;1.35;100.00
56182;BME280;51963;46.052;14.544;2023-03-18T06:58:53;98333.78;;;1.51;100.00
56182;BME280;51963;46.052;14.544;2023-03-18T07:01:19;98327.34;;;1.55;100.00
56182;BME280;51963;46.052;14.544;2023-03-18T07:03:46;98311.72;;;1.55;100.00
56182;BME280;51963;46.052;14.544;2023-03-18T07:06:13;98323.59;;;1.79;100.00
56182;BME280;51963;46.052;14.544;2023-03-18T07:08:41;98323.63;;;1.99;98.87
56182;BME280;51963;46.052;14.544;2023-03-18T07:11:07;98323.94;;;2.15;97.40
56182;BME280;51963;46.052;14.544;2023-03-18T07:13:35;98316.53;;;2.20;96.62
56182;BME280;51963;46.052;14.544;2023-03-18T07:16:04;98325.63;;;2.36;95.60
56182;BME280;51963;46.052;14.544;2023-03-18T07:18:30;98320.13;;;2.39;94.72
56182;BME280;51963;46.052;14.544;2023-03-18T07:20:56;98330.13;;;2.44;94.12
56182;BME280;51963;46.052;14.544;2023-03-18T07:23:22;98342.66;;;2.60;93.18
56182;BME280;51963;46.052;14.544;2023-03-18T07:25:48;98326.84;;;2.71;92.96
56182;BME280;51963;46.052;14.544;2023-03-18T07:28:14;98331.78;;;2.94;91.98
56182;BME280;51963;46.052;14.544;2023-03-18T07:30:40;98315.56;;;3.00;91.32
56182;BME280;51963;46.052;14.544;2023-03-18T07:33:05;98337.66;;;3.26;90.05
56182;BME280;51963;46.052;14.544;2023-03-18T07:35:32;98326.78;;;3.58;88.36
56182;BME280;51963;46.052;14.544;2023-03-18T07:37:57;98330.97;;;3.79;86.21
56182;BME280;51963;46.052;14.544;2023-03-18T07:40:23;98340.03;;;3.85;86.17
56182;BME280;51963;46.052;14.544;2023-03-18T07:42:49;98337.94;;;3.88;84.71
56182;BME280;51963;46.052;14.544;2023-03-18T07:45:18;98342.88;;;4.19;84.97
56182;BME280;51963;46.052;14.544;2023-03-18T07:47:43;98338.19;;;4.41;84.82
56182;BME280;51963;46.052;14.544;2023-03-18T07:50:10;98337.97;;;4.70;83.59
56182;BME280;51963;46.052;14.544;2023-03-18T07:52:36;98317.22;;;4.77;83.58
56182;BME280;51963;46.052;14.544;2023-03-18T07:55:03;98332.72;;;5.15;81.82
56182;BME280;51963;46.052;14.544;2023-03-18T07:57:29;98328.78;;;5.37;80.59
56182;BME280;51963;46.052;14.544;2023-03-18T07:59:54;98330.91;;;5.68;78.95
56182;BME280;51963;46.052;14.544;2023-03-18T08:02:20;98338.50;;;6.23;77.65
56182;BME280;51963;46.052;14.544;2023-03-18T08:04:48;98340.69;;;6.60;75.63
56182;BME280;51963;46.052;14.544;2023-03-18T08:07:13;98323.44;;;6.91;73.98
56182;BME280;51963;46.052;14.544;2023-03-18T08:09:39;98323.28;;;7.01;74.34
56182;BME280;51963;46.052;14.544;2023-03-18T08:12:05;98344.22;;;7.59;71.89
56182;BME280;51963;46.052;14.544;2023-03-18T08:14:31;98330.91;;;8.00;71.67
56182;BME280;51963;46.052;14.544;2023-03-18T08:16:56;98311.81;;;7.98;69.16
56182;BME280;51963;46.052;14.544;2023-03-18T08:19:22;98315.09;;;8.00;69.10
56182;BME280;51963;46.052;14.544;2023-03-18T08:21:48;98324.22;;;8.53;68.92
56182;BME280;51963;46.052;14.544;2023-03-18T08:24:15;98329.41;;;9.22;67.53
56182;BME280;51963;46.052;14.544;2023-03-18T08:26:43;98332.16;;;9.74;63.64
56182;BME280;51963;46.052;14.544;2023-03-18T08:29:09;98328.78;;;9.95;63.12
56182;BME280;51963;46.052;14.544;2023-03-18T08:31:35;98331.03;;;9.23;64.62
56182;BME280;51963;46.052;14.544;2023-03-18T08:34:01;98332.00;;;9.46;65.78
56182;BME280;51963;46.052;14.544;2023-03-18T08:36:26;98329.41;;;9.97;63.46
56182;BME280;51963;46.052;14.544;2023-03-18T08:38:53;98326.72;;;10.64;65.82
56182;BME280;51963;46.052;14.544;2023-03-18T08:41:19;98323.78;;;11.03;61.75
56182;BME280;51963;46.052;14.544;2023-03-18T08:43:44;98340.81;;;11.50;61.41
56182;BME280;51963;46.052;14.544;2023-03-18T08:46:11;98326.63;;;11.65;57.71
56182;BME280;51963;46.052;14.544;2023-03-18T08:48:40;98336.81;;;11.33;59.12
56182;BME280;51963;46.052;14.544;2023-03-18T08:51:06;98334.09;;;11.96;57.54
56182;BME280;51963;46.052;14.544;2023-03-18T08:53:33;98321.56;;;11.35;57.76
56182;BME280;51963;46.052;14.544;2023-03-18T08:56:07;98317.59;;;11.52;57.89
56182;BME280;51963;46.052;14.544;2023-03-18T08:58:33;98305.53;;;11.14;56.78
56182;BME280;51963;46.052;14.544;2023-03-18T09:00:59;98319.97;;;12.31;56.84
56182;BME280;51963;46.052;14.544;2023-03-18T09:03:28;98324.94;;;12.74;54.77
56182;BME280;51963;46.052;14.544;2023-03-18T09:05:54;98300.41;;;12.32;53.79
56182;BME280;51963;46.052;14.544;2023-03-18T09:08:20;98313.88;;;12.37;52.69
56182;BME280;51963;46.052;14.544;2023-03-18T09:10:47;98321.66;;;12.59;53.29
56182;BME280;51963;46.052;14.544;2023-03-18T09:13:15;98302.09;;;12.60;52.95
56182;BME280;51963;46.052;14.544;2023-03-18T09:15:43;98299.22;;;12.88;52.78
56182;BME280;51963;46.052;14.544;2023-03-18T09:18:08;98309.00;;;13.28;52.70
56182;BME280;51963;46.052;14.544;2023-03-18T09:20:35;98325.31;;;13.72;50.89
56182;BME280;51963;46.052;14.544;2023-03-18T09:23:02;98323.25;;;13.68;50.00
56182;BME280;51963;46.052;14.544;2023-03-18T09:25:28;98317.56;;;14.48;48.05
56182;BME280;51963;46.052;14.544;2023-03-18T09:27:53;98299.63;;;13.39;49.94
56182;BME280;51963;46.052;14.544;2023-03-18T09:30:19;98313.38;;;13.95;50.18
56182;BME280;51963;46.052;14.544;2023-03-18T09:32:45;98288.81;;;14.64;50.92
56182;BME280;51963;46.052;14.544;2023-03-18T09:35:24;98322.25;;;15.10;47.22
56182;BME280;51963;46.052;14.544;2023-03-18T09:37:55;98314.78;;;15.45;45.95
56182;BME280;51963;46.052;14.544;2023-03-18T09:40:27;98319.31;;;15.44;45.08
56182;BME280;51963;46.052;14.544;2023-03-18T09:45:32;98312.06;;;16.38;42.87
56182;BME280;51963;46.052;14.544;2023-03-18T09:54:39;98302.38;;;17.10;41.70
56182;BME280;51963;46.052;14.544;2023-03-18T09:57:17;98297.56;;;16.34;41.22
56182;BME280;51963;46.052;14.544;2023-03-18T09:59:48;98293.13;;;16.70;41.18
56182;BME280;51963;46.052;14.544;2023-03-18T10:02:58;98292.91;;;15.98;42.44
56182;BME280;51963;46.052;14.544;2023-03-18T10:05:45;98287.97;;;16.99;41.21
56182;BME280;51963;46.052;14.544;2023-03-18T10:08:23;98267.34;;;17.59;40.60
56182;BME280;51963;46.052;14.544;2023-03-18T10:11:01;98270.94;;;16.69;40.95
56182;BME280;51963;46.052;14.544;2023-03-18T10:16:23;98279.72;;;17.12;40.71
56182;BME280;51963;46.052;14.544;2023-03-18T10:18:51;98280.34;;;17.67;41.25
56182;BME280;51963;46.052;14.544;2023-03-18T10:21:36;98280.13;;;18.39;40.21
56182;BME280;51963;46.052;14.544;2023-03-18T10:27:25;98257.66;;;17.29;38.18
56182;BME280;51963;46.052;14.544;2023-03-18T10:32:47;98268.31;;;19.03;36.24
56182;BME280;51963;46.052;14.544;2023-03-18T10:35:32;98272.13;;;18.56;36.01
56182;BME280;51963;46.052;14.544;2023-03-18T10:38:09;98270.91;;;19.15;35.59
56182;BME280;51963;46.052;14.544;2023-03-18T10:40:38;98259.50;;;20.14;34.74
56182;BME280;51963;46.052;14.544;2023-03-18T10:43:28;98236.91;;;19.60;33.70
56182;BME280;51963;46.052;14.544;2023-03-18T10:46:03;98245.13;;;20.25;33.75
56182;BME280;51963;46.052;14.544;2023-03-18T10:48:52;98265.97;;;21.10;32.35
56182;BME280;51963;46.052;14.544;2023-03-18T10:56:40;98254.53;;;21.31;30.17
56182;BME280;51963;46.052;14.544;2023-03-18T10:59:13;98250.19;;;21.78;30.64
56182;BME280;51963;46.052;14.544;2023-03-18T11:01:41;98256.16;;;22.01;30.15
56182;BME280;51963;46.052;14.544;2023-03-18T11:04:20;98254.84;;;22.03;30.44
56182;BME280;51963;46.052;14.544;2023-03-18T11:07:12;98245.75;;;22.77;28.92
56182;BME280;51963;46.052;14.544;2023-03-18T11:09:39;98248.53;;;24.19;29.09
56182;BME280;51963;46.052;14.544;2023-03-18T11:12:18;98237.47;;;25.62;25.33
56182;BME280;51963;46.052;14.544;2023-03-18T11:14:48;98244.66;;;24.70;26.10
56182;BME280;51963;46.052;14.544;2023-03-18T11:17:30;98244.56;;;24.45;26.39
56182;BME280;51963;46.052;14.544;2023-03-18T11:22:36;98242.09;;;25.62;25.28
56182;BME280;51963;46.052;14.544;2023-03-18T11:25:31;98243.50;;;24.41;27.96
56182;BME280;51963;46.052;14.544;2023-03-18T11:28:02;98238.97;;;25.25;25.93
56182;BME280;51963;46.052;14.544;2023-03-18T11:30:51;98229.53;;;24.98;24.99
56182;BME280;51963;46.052;14.544;2023-03-18T11:33:17;98221.53;;;26.57;22.78
56182;BME280;51963;46.052;14.544;2023-03-18T11:35:57;98223.47;;;26.70;21.70
56182;BME280;51963;46.052;14.544;2023-03-18T11:38:29;98216.75;;;26.15;23.61
56182;BME280;51963;46.052;14.544;2023-03-18T11:41:15;98229.28;;;26.44;21.38
56182;BME280;51963;46.052;14.544;2023-03-18T11:43:57;98227.03;;;26.13;21.74
56182;BME280;51963;46.052;14.544;2023-03-18T11:46:46;98215.91;;;27.00;20.26
56182;BME280;51963;46.052;14.544;2023-03-18T11:49:16;98239.53;;;27.56;20.08
56182;BME280;51963;46.052;14.544;2023-03-18T11:52:00;98218.13;;;25.74;21.51
56182;BME280;51963;46.052;14.544;2023-03-18T11:57:48;98222.00;;;28.13;20.07
56182;BME280;51963;46.052;14.544;2023-03-18T12:05:57;98227.59;;;24.00;22.44
56182;BME280;51963;46.052;14.544;2023-03-18T12:11:18;98199.78;;;24.69;23.04
56182;BME280;51963;46.052;14.544;2023-03-18T12:14:00;98207.31;;;24.77;22.43
56182;BME280;51963;46.052;14.544;2023-03-18T12:17:00;98203.59;;;24.33;22.96
56182;BME280;51963;46.052;14.544;2023-03-18T12:19:51;98203.94;;;25.15;21.64
56182;BME280;51963;46.052;14.544;2023-03-18T12:22:38;98209.09;;;25.60;23.73
56182;BME280;51963;46.052;14.544;2023-03-18T12:25:21;98200.25;;;25.92;20.85
56182;BME280;51963;46.052;14.544;2023-03-18T12:28:09;98190.28;;;25.25;21.06
56182;BME280;51963;46.052;14.544;2023-03-18T12:33:27;98203.22;;;26.48;20.33
56182;BME280;51963;46.052;14.544;2023-03-18T12:46:35;98194.00;;;27.11;20.27
56182;BME280;51963;46.052;14.544;2023-03-18T12:49:53;98186.06;;;27.56;19.68
56182;BME280;51963;46.052;14.544;2023-03-18T12:52:08;98179.41;;;26.78;19.68
56182;BME280;51963;46.052;14.544;2023-03-18T12:54:44;98178.03;;;27.09;20.12
56182;BME280;51963;46.052;14.544;2023-03-18T12:57:38;98179.31;;;25.79;21.18
56182;BME280;51963;46.052;14.544;2023-03-18T13:00:19;98169.44;;;25.88;20.49
56182;BME280;51963;46.052;14.544;2023-03-18T13:06:01;98157.44;;;25.56;21.12
56182;BME280;51963;46.052;14.544;2023-03-18T13:08:46;98185.06;;;27.52;19.32
56182;BME280;51963;46.052;14.544;2023-03-18T13:14:19;98156.41;;;25.52;20.66
56182;BME280;51963;46.052;14.544;2023-03-18T13:16:47;98186.84;;;24.95;21.73
56182;BME280;51963;46.052;14.544;2023-03-18T13:19:19;98174.75;;;25.12;21.22
56182;BME280;51963;46.052;14.544;2023-03-18T13:21:49;98168.66;;;25.88;21.30
56182;BME280;51963;46.052;14.544;2023-03-18T13:27:09;98145.53;;;26.29;19.18
56182;BME280;51963;46.052;14.544;2023-03-18T13:29:47;98173.63;;;26.99;19.57
56182;BME280;51963;46.052;14.544;2023-03-18T13:43:00;98160.06;;;25.18;20.82
56182;BME280;51963;46.052;14.544;2023-03-18T13:45:36;98163.94;;;25.93;20.07
56182;BME280;51963;46.052;14.544;2023-03-18T13:48:12;98150.03;;;27.64;18.66
56182;BME280;51963;46.052;14.544;2023-03-18T13:50:42;98137.72;;;27.81;18.61
56182;BME280;51963;46.052;14.544;2023-03-18T13:53:30;98151.47;;;27.48;18.91
56182;BME280;51963;46.052;14.544;2023-03-18T14:03:28;98105.88;;;26.66;19.34
56182;BME280;51963;46.052;14.544;2023-03-18T14:13:49;98116.00;;;25.37;20.43
56182;BME280;51963;46.052;14.544;2023-03-18T14:17:01;98138.06;;;26.40;20.23
56182;BME280;51963;46.052;14.544;2023-03-18T14:19:16;98127.06;;;25.40;19.94
56182;BME280;51963;46.052;14.544;2023-03-18T14:21:50;98127.00;;;24.78;20.07
56182;BME280;51963;46.052;14.544;2023-03-18T14:24:22;98130.97;;;24.56;20.98
56182;BME280;51963;46.052;14.544;2023-03-18T14:29:28;98086.25;;;24.44;20.85
56182;BME280;51963;46.052;14.544;2023-03-18T14:32:00;98101.78;;;25.07;20.39
56182;BME280;51963;46.052;14.544;2023-03-18T14:37:26;98129.78;;;25.40;20.66
56182;BME280;51963;46.052;14.544;2023-03-18T14:40:00;98126.66;;;25.09;20.85
56182;BME280;51963;46.052;14.544;2023-03-18T14:42:42;98121.28;;;25.03;20.38